Time;durP1;ratioP1;P1;durP2;ratioP2;P2;SDS_P1;SDS_P2;PMS_P1;PMS_P2;Temp;Humidity;BMP_temperature;BMP_pressure;BME280_temperature;BME280_humidity;BME280_pressure;Samples;Min_cycle;Max_cycle;Signal;HPM_P1;HPM_P2
2022/02/24 00:00:25;;;;;;;28.85;12.57;;;153.80;2252.80;;;;;;5042669;28;20060;-80
2022/02/24 00:02:51;;;;;;;;;;;128.90;2252.80;;;;;;5043574;28;20041;-79
2022/02/24 00:05:17;;;;;;;24.92;10.95;;;153.70;2252.80;;;;;;5045728;28;20282;-79
2022/02/24 00:07:43;;;;;;;;;;;128.90;2252.80;;;;;;5039522;28;20025;-82
2022/02/24 00:10:11;;;;;;;30.67;11.70;;;153.60;2252.80;;;;;;5043103;28;19905;-79
2022/02/24 00:12:38;;;;;;;24.63;10.75;;;153.70;2252.80;;;;;;5045297;28;20029;-79
2022/02/24 00:15:06;;;;;;;29.60;13.25;;;128.90;2252.80;;;;;;5042246;28;20025;-85
2022/02/24 00:17:32;;;;;;;37.75;12.48;;;128.80;2252.80;;;;;;5043490;28;20018;-79
2022/02/24 00:19:58;;;;;;;32.08;14.82;;;128.70;2252.80;;;;;;5043997;28;20025;-80
2022/02/24 00:22:25;;;;;;;39.03;14.75;;;128.90;2252.80;;;;;;5044678;28;20136;-80
2022/02/24 00:24:51;;;;;;;25.25;10.73;;;128.90;2252.80;;;;;;5043083;28;20025;-79
2022/02/24 00:27:17;;;;;;;33.47;14.38;;;153.70;2252.80;;;;;;5042716;28;20028;-79
2022/02/24 00:29:43;;;;;;;;;;;153.80;2252.80;;;;;;5043030;28;20029;-83
2022/02/24 00:32:08;;;;;;;128.80;45.03;;;153.80;2252.80;;;;;;5052479;28;19904;-79
2022/02/24 00:34:34;;;;;;;;;;;153.80;2252.80;;;;;;5055767;28;20063;-79
2022/02/24 00:37:01;;;;;;;171.65;59.42;;;153.80;2252.80;;;;;;5054325;28;19970;-85
2022/02/24 00:39:27;;;;;;;135.90;45.55;;;153.80;2252.80;;;;;;5053981;28;20025;-83
2022/02/24 00:41:53;;;;;;;71.90;29.15;;;153.70;2252.80;;;;;;5053822;28;20086;-80
2022/02/24 00:44:19;;;;;;;73.18;27.60;;;153.70;2252.80;;;;;;5054913;28;20033;-84
2022/02/24 00:46:45;;;;;;;;;;;153.80;2252.80;;;;;;5054176;28;20036;-79
2022/02/24 00:49:11;;;;;;;29.23;12.00;;;153.80;2252.80;;;;;;5053397;28;19904;-79
2022/02/24 00:51:37;;;;;;;;;;;153.80;2252.80;;;;;;5055023;28;20029;-83
2022/02/24 00:54:04;;;;;;;29.90;13.18;;;153.70;2252.80;;;;;;5053339;28;19908;-84
2022/02/24 00:56:31;;;;;;;33.25;14.57;;;153.60;2252.80;;;;;;5054713;28;20079;-83
2022/02/24 00:58:57;;;;;;;36.50;15.77;;;153.60;2252.80;;;;;;5053440;28;20059;-80
2022/02/24 01:01:22;;;;;;;;;;;153.60;2252.80;;;;;;5053863;28;20383;-84
2022/02/24 01:03:48;;;;;;;26.02;11.50;;;153.60;2252.80;;;;;;5053229;28;19962;-80
2022/02/24 01:06:14;;;;;;;;;;;128.90;2252.80;;;;;;5053531;28;20120;-84
2022/02/24 01:08:40;;;;;;;19.48;9.52;;;128.60;2252.80;;;;;;5053559;28;19904;-79
2022/02/24 01:11:05;;;;;;;;;;;128.50;2252.80;;;;;;5053808;28;20502;-80
2022/02/24 01:13:31;;;;;;;28.02;10.00;;;128.40;2252.80;;;;;;5053369;28;20378;-84
2022/02/24 01:15:57;;;;;;;;;;;128.30;2252.80;;;;;;5053577;28;20037;-80
2022/02/24 01:18:22;;;;;;;25.35;11.73;;;128.20;2252.80;;;;;;5053403;28;19905;-80
2022/02/24 01:20:48;;;;;;;;;;;128.10;2252.80;;;;;;5053514;28;20021;-79
2022/02/24 01:23:14;;;;;;;25.55;12.57;;;103.30;2227.20;;;;;;5053052;28;19917;-84
2022/02/24 01:25:40;;;;;;;33.15;13.15;;;103.30;2227.20;;;;;;5052790;28;20104;-79
2022/02/24 01:28:06;;;;;;;31.50;14.00;;;103.30;2227.20;;;;;;5053103;28;20071;-85
2022/02/24 01:30:32;;;;;;;;;;;103.30;2227.20;;;;;;5053000;28;20060;-80
2022/02/24 01:32:58;;;;;;;31.35;12.95;;;103.20;2227.20;;;;;;5052829;28;19936;-79
2022/02/24 01:35:24;;;;;;;30.95;13.07;;;103.30;2227.20;;;;;;5052797;28;20075;-84
2022/02/24 01:37:50;;;;;;;34.22;13.93;;;103.30;2227.20;;;;;;5052980;28;20067;-79
2022/02/24 01:40:16;;;;;;;;;;;128.00;2252.80;;;;;;5053336;28;20458;-79
2022/02/24 01:42:42;;;;;;;33.70;14.25;;;128.10;2252.80;;;;;;5052930;28;20002;-83
2022/02/24 01:45:09;;;;;;;30.77;12.80;;;128.10;2252.80;;;;;;5052430;28;20033;-85
2022/02/24 01:47:35;;;;;;;32.88;13.45;;;128.10;2252.80;;;;;;5052272;28;20033;-84
2022/02/24 01:50:01;;;;;;;;;;;128.20;2252.80;;;;;;5053170;28;20156;-79
2022/02/24 01:52:28;;;;;;;34.03;13.27;;;128.30;2252.80;;;;;;5054159;28;19905;-83
2022/02/24 01:54:54;;;;;;;34.92;15.38;;;128.20;2252.80;;;;;;5056179;28;20039;-84
2022/02/24 01:57:19;;;;;;;31.33;14.05;;;128.20;2252.80;;;;;;5056727;28;20021;-84
2022/02/24 01:59:46;;;;;;;;;;;128.10;2252.80;;;;;;5057450;28;20029;-79
2022/02/24 02:02:14;;;;;;;26.67;11.68;;;128.10;2252.80;;;;;;5056556;28;19966;-79
2022/02/24 02:04:39;;;;;;;31.90;12.70;;;103.30;2227.20;;;;;;5056798;28;20386;-84
2022/02/24 02:07:05;;;;;;;;;;;128.00;2252.80;;;;;;5056912;28;20025;-82
2022/02/24 02:09:32;;;;;;;32.63;12.90;;;128.10;2252.80;;;;;;5057552;28;19958;-80
2022/02/24 02:11:58;;;;;;;28.67;12.40;;;103.30;2227.20;;;;;;5056497;28;20039;-79
2022/02/24 02:14:24;;;;;;;27.83;12.32;;;103.30;2227.20;;;;;;5067003;28;20059;-79
2022/02/24 02:16:50;;;;;;;;;;;103.30;2227.20;;;;;;5070372;28;20037;-81
2022/02/24 02:19:17;;;;;;;29.33;12.20;;;103.30;2227.20;;;;;;5056741;28;20294;-84
2022/02/24 02:21:44;;;;;;;25.90;11.52;;;103.10;2227.20;;;;;;5056641;28;20025;-83
2022/02/24 02:24:10;;;;;;;28.17;12.30;;;102.90;2227.20;;;;;;5056249;28;20034;-85
2022/02/24 02:26:36;;;;;;;;;;;103.00;2227.20;;;;;;5056944;28;20025;-84
2022/02/24 02:29:04;;;;;;;28.50;11.43;;;103.10;2227.20;;;;;;5055942;28;19911;-83
2022/02/24 02:31:30;;;;;;;32.28;12.15;;;103.10;2227.20;;;;;;5056186;28;20017;-80
2022/02/24 02:34:00;;;;;;;;;;;103.10;2227.20;;;;;;5056571;28;20125;-85
2022/02/24 02:36:26;;;;;;;28.00;10.13;;;103.10;2227.20;;;;;;5056096;28;20358;-80
2022/02/24 02:38:52;;;;;;;;;;;103.00;2227.20;;;;;;5056443;28;20025;-80
2022/02/24 02:41:18;;;;;;;28.17;11.15;;;103.00;2227.20;;;;;;5055961;28;19913;-80
2022/02/24 02:43:43;;;;;;;;;;;102.90;2227.20;;;;;;5056479;28;20075;-83
2022/02/24 02:46:10;;;;;;;24.13;10.27;;;102.80;2227.20;;;;;;5057076;28;19904;-84
2022/02/24 02:48:36;;;;;;;29.25;11.88;;;102.80;2227.20;;;;;;5057188;28;20017;-85
2022/02/24 02:51:02;;;;;;;;;;;102.90;2227.20;;;;;;5055831;28;20086;-85
2022/02/24 02:53:28;;;;;;;29.40;11.70;;;102.90;2227.20;;;;;;5055877;28;19909;-82
2022/02/24 02:55:53;;;;;;;;;;;102.80;2227.20;;;;;;5056321;28;20036;-85
2022/02/24 02:58:19;;;;;;;23.55;9.93;;;102.70;2227.20;;;;;;5055974;28;20393;-80
2022/02/24 03:00:44;;;;;;;;;;;102.60;2227.20;;;;;;5056041;28;20025;-81
2022/02/24 03:03:10;;;;;;;21.40;9.65;;;102.50;2227.20;;;;;;5055698;28;20002;-84
2022/02/24 03:05:36;;;;;;;;;;;102.40;2227.20;;;;;;5056043;28;20025;-81
2022/02/24 03:08:02;;;;;;;25.02;10.77;;;102.40;2227.20;;;;;;5054917;28;19905;-80
2022/02/24 03:10:28;;;;;;;20.85;11.20;;;102.40;2227.20;;;;;;5055733;28;20108;-80
2022/02/24 03:12:54;;;;;;;;;;;102.60;2227.20;;;;;;5055844;28;20033;-85
2022/02/24 03:15:19;;;;;;;27.33;11.73;;;102.60;2227.20;;;;;;5055525;28;20010;-79
2022/02/24 03:17:46;;;;;;;;;;;102.70;2227.20;;;;;;5056095;28;20709;-86
2022/02/24 03:20:12;;;;;;;30.50;12.23;;;102.70;2227.20;;;;;;5055508;28;19909;-78
2022/02/24 03:22:39;;;;;;;30.98;10.35;;;103.00;2227.20;;;;;;5055412;28;20116;-81
2022/02/24 03:25:05;;;;;;;;;;;103.10;2227.20;;;;;;5055343;28;20036;-83
2022/02/24 03:27:31;;;;;;;31.75;13.57;;;102.70;2227.20;;;;;;5055210;28;19905;-85
2022/02/24 03:29:56;;;;;;;;;;;102.70;2227.20;;;;;;5055544;28;20120;-79
2022/02/24 03:32:22;;;;;;;28.02;12.80;;;102.70;2227.20;;;;;;5055189;28;19950;-79
2022/02/24 03:34:48;;;;;;;;;;;102.70;2227.20;;;;;;5055168;28;20114;-85
2022/02/24 03:37:14;;;;;;;36.20;13.45;;;102.70;2227.20;;;;;;5054964;28;19939;-83
2022/02/24 03:39:42;;;;;;;36.25;11.90;;;102.80;2227.20;;;;;;5054856;28;20070;-79
2022/02/24 03:42:08;;;;;;;25.23;11.57;;;102.70;2227.20;;;;;;5054735;28;20037;-86
2022/02/24 03:44:35;;;;;;;28.63;10.73;;;102.70;2227.20;;;;;;5054593;28;20052;-86
2022/02/24 03:47:01;;;;;;;20.13;10.77;;;102.80;2227.20;;;;;;5055665;28;20025;-85
2022/02/24 03:49:27;;;;;;;20.60;9.85;;;102.80;2227.20;;;;;;5054594;28;20021;-86
2022/02/24 03:51:52;;;;;;;;;;;102.80;2227.20;;;;;;5054637;28;20037;-80
2022/02/24 03:54:19;;;;;;;19.95;9.23;;;102.70;2227.20;;;;;;5054603;28;19939;-79
2022/02/24 03:56:45;;;;;;;24.55;9.63;;;102.80;2227.20;;;;;;5054075;28;20087;-87
2022/02/24 03:59:10;;;;;;;;;;;102.80;2227.20;;;;;;5054936;28;20032;-87
2022/02/24 04:01:36;;;;;;;27.95;9.93;;;102.80;2227.20;;;;;;5054443;28;19905;-79
2022/02/24 04:04:02;;;;;;;;;;;102.80;2227.20;;;;;;5054382;28;20056;-86
2022/02/24 04:06:27;;;;;;;22.52;9.27;;;102.70;2227.20;;;;;;5054384;28;19915;-86
2022/02/24 04:08:53;;;;;;;;;;;102.70;2227.20;;;;;;5054781;28;20025;-79
2022/02/24 04:11:19;;;;;;;16.23;8.75;;;102.70;2227.20;;;;;;5055123;28;19931;-87
2022/02/24 04:13:44;;;;;;;;;;;102.60;2227.20;;;;;;5055798;28;20064;-87
2022/02/24 04:16:10;;;;;;;24.05;9.85;;;102.60;2227.20;;;;;;5053750;28;19999;-87
2022/02/24 04:18:36;;;;;;;20.90;10.63;;;102.70;2227.20;;;;;;5053855;28;20167;-88
2022/02/24 04:21:02;;;;;;;26.95;12.07;;;102.70;2227.20;;;;;;5054225;28;20044;-86
2022/02/24 04:23:28;;;;;;;20.42;11.35;;;102.80;2227.20;;;;;;5053919;28;20502;-80
2022/02/24 04:25:54;;;;;;;26.90;12.43;;;102.80;2227.20;;;;;;5054284;28;20021;-80
2022/02/24 04:28:20;;;;;;;28.17;11.45;;;102.80;2227.20;;;;;;5054978;28;20482;-79
2022/02/24 04:30:45;;;;;;;;;;;102.80;2227.20;;;;;;5053685;28;20498;-79
2022/02/24 04:33:11;;;;;;;25.73;10.60;;;102.80;2227.20;;;;;;5055009;28;19995;-87
2022/02/24 04:35:37;;;;;;;;;;;102.70;2227.20;;;;;;5054303;28;20025;-88
2022/02/24 04:38:02;;;;;;;30.17;11.20;;;102.60;2227.20;;;;;;5053290;28;19905;-87
2022/02/24 04:40:28;;;;;;;;;;;102.40;2227.20;;;;;;5054293;28;20033;-83
2022/02/24 04:42:54;;;;;;;36.83;13.73;;;102.40;2227.20;;;;;;5053630;28;19917;-80
2022/02/24 04:45:20;;;;;;;31.08;13.45;;;77.70;2227.20;;;;;;5053447;28;20356;-83
2022/02/24 04:47:46;;;;;;;25.70;11.00;;;102.40;2227.20;;;;;;5053652;28;20036;-79
2022/02/24 04:50:11;;;;;;;;;;;102.40;2227.20;;;;;;5053847;28;20025;-87
2022/02/24 04:52:38;;;;;;;25.75;10.02;;;102.40;2227.20;;;;;;5053647;28;19915;-86
2022/02/24 04:55:05;;;;;;;26.75;11.23;;;102.50;2227.20;;;;;;5053448;28;20505;-88
2022/02/24 04:57:31;;;;;;;23.63;10.27;;;102.50;2227.20;;;;;;5053001;28;20029;-80
2022/02/24 04:59:57;;;;;;;21.95;9.65;;;102.50;2227.20;;;;;;5053390;28;20036;-79
2022/02/24 05:02:23;;;;;;;;;;;102.50;2227.20;;;;;;5053465;28;20053;-85
2022/02/24 05:04:49;;;;;;;32.47;11.43;;;102.50;2227.20;;;;;;5053260;28;20359;-80
2022/02/24 05:07:16;;;;;;;30.33;12.60;;;102.60;2227.20;;;;;;5054414;28;20031;-79
2022/02/24 05:09:42;;;;;;;28.75;11.65;;;102.70;2227.20;;;;;;5052736;28;20094;-79
2022/02/24 05:12:08;;;;;;;32.42;11.02;;;102.80;2227.20;;;;;;5052811;28;20451;-84
2022/02/24 05:14:34;;;;;;;29.05;10.93;;;102.80;2227.20;;;;;;5053201;28;20033;-87
2022/02/24 05:17:00;;;;;;;;;;;102.90;2227.20;;;;;;5052977;28;20024;-79
2022/02/24 05:19:25;;;;;;;24.80;9.45;;;103.00;2227.20;;;;;;5052821;28;19905;-88
2022/02/24 05:21:51;;;;;;;;;;;102.90;2227.20;;;;;;5053491;28;20071;-86
2022/02/24 05:24:17;;;;;;;29.45;10.77;;;102.90;2227.20;;;;;;5053774;28;19943;-79
2022/02/24 05:26:43;;;;;;;;;;;102.90;2227.20;;;;;;5052430;28;20395;-79
2022/02/24 05:29:08;;;;;;;20.52;9.57;;;102.90;2227.20;;;;;;5052739;28;20343;-80
2022/02/24 05:31:34;;;;;;;;;;;102.90;2227.20;;;;;;5054257;28;20021;-89
2022/02/24 05:34:00;;;;;;;19.42;9.32;;;103.00;2227.20;;;;;;5052585;28;19943;-84
2022/02/24 05:36:26;;;;;;;;;;;102.90;2227.20;;;;;;5062605;28;20103;-79
2022/02/24 05:38:54;;;;;;;24.58;10.05;;;102.80;2227.20;;;;;;5065374;28;19915;-80
2022/02/24 05:41:20;;;;;;;24.92;10.10;;;102.90;2227.20;;;;;;5057120;28;20544;-88
2022/02/24 05:43:47;;;;;;;;;;;102.90;2227.20;;;;;;5053665;28;20037;-79
2022/02/24 05:46:13;;;;;;;33.08;14.25;;;102.80;2227.20;;;;;;5052768;28;19905;-88
2022/02/24 05:48:39;;;;;;;44.00;19.80;;;102.80;2227.20;;;;;;5052531;28;20036;-89
2022/02/24 05:51:04;;;;;;;;;;;102.90;2227.20;;;;;;5053220;28;20033;-88
2022/02/24 05:53:30;;;;;;;38.08;16.35;;;102.90;2227.20;;;;;;5052542;28;20003;-80
2022/02/24 05:55:56;;;;;;;35.25;13.88;;;102.90;2227.20;;;;;;5052382;28;20147;-79
2022/02/24 05:58:22;;;;;;;;;;;102.80;2227.20;;;;;;5052460;28;20120;-80
2022/02/24 06:00:48;;;;;;;53.30;23.00;;;102.80;2227.20;;;;;;5052758;28;19909;-81
2022/02/24 06:03:13;;;;;;;;;;;102.80;2227.20;;;;;;5054115;28;20056;-80
2022/02/24 06:05:39;;;;;;;56.13;25.35;;;102.90;2227.20;;;;;;5052203;28;19905;-80
2022/02/24 06:08:05;;;;;;;;;;;102.90;2227.20;;;;;;5053892;28;20025;-86
2022/02/24 06:10:31;;;;;;;85.05;35.17;;;103.00;2227.20;;;;;;5052127;28;20378;-88
2022/02/24 06:12:58;;;;;;;;;;;103.10;2227.20;;;;;;5052404;28;20039;-81
2022/02/24 06:15:24;;;;;;;86.10;39.55;;;103.10;2227.20;;;;;;5053632;28;19905;-79
2022/02/24 06:17:51;;;;;;;96.10;38.80;;;103.20;2227.20;;;;;;5052054;28;20031;-87
2022/02/24 06:20:16;;;;;;;;;;;103.30;2227.20;;;;;;5052448;28;20056;-81
2022/02/24 06:22:42;;;;;;;65.68;30.00;;;103.30;2227.20;;;;;;5052244;28;19951;-80
2022/02/24 06:25:08;;;;;;;;;;;103.30;2227.20;;;;;;5052743;28;20091;-82
2022/02/24 06:27:34;;;;;;;53.35;25.48;;;128.00;2252.80;;;;;;5052455;28;19905;-79
2022/02/24 06:30:01;;;;;;;;;;;128.00;2252.80;;;;;;5052689;28;20390;-79
2022/02/24 06:32:27;;;;;;;47.55;23.70;;;128.20;2252.80;;;;;;5053602;28;19904;-87
2022/02/24 06:34:56;;;;;;;43.22;22.30;;;128.10;2252.80;;;;;;5052382;28;20029;-86
2022/02/24 06:37:23;;;;;;;42.35;20.65;;;128.30;2252.80;;;;;;5052549;28;20025;-78
2022/02/24 06:39:49;;;;;;;38.63;17.73;;;128.40;2252.80;;;;;;5055207;28;20037;-82
2022/02/24 06:42:15;;;;;;;48.80;20.65;;;128.40;2252.80;;;;;;5056714;28;20041;-84
2022/02/24 06:44:40;;;;;;;49.70;25.90;;;128.50;2252.80;;;;;;5055619;28;20048;-79
2022/02/24 06:47:06;;;;;;;;;;;128.60;2252.80;;;;;;5056361;28;20021;-88
2022/02/24 06:49:32;;;;;;;53.50;24.33;;;128.70;2252.80;;;;;;5057107;28;20355;-86
2022/02/24 06:51:58;;;;;;;;;;;128.80;2252.80;;;;;;5053253;28;20025;-85
2022/02/24 06:54:26;;;;;;;24.53;12.83;;;128.90;2252.80;;;;;;5048235;28;19959;-80
2022/02/24 06:56:51;;;;;;;30.70;16.55;;;128.90;2252.80;;;;;;5044579;28;20325;-89
2022/02/24 06:59:17;;;;;;;;;;;153.60;2252.80;;;;;;5044220;28;20433;-87
2022/02/24 07:01:44;;;;;;;47.28;21.83;;;153.70;2252.80;;;;;;5046851;28;19928;-82
2022/02/24 07:04:09;;;;;;;60.35;28.67;;;153.80;2252.80;;;;;;5045542;28;20045;-81
2022/02/24 07:06:35;;;;;;;;;;;153.80;2252.80;;;;;;5047221;28;20536;-86
2022/02/24 07:09:01;;;;;;;50.33;22.52;;;153.80;2252.80;;;;;;5055876;28;20274;-80
2022/02/24 07:11:27;;;;;;;48.65;20.60;;;153.80;2252.80;;;;;;5039506;28;20041;-87
2022/02/24 07:13:53;;;;;;;;;;;153.90;2252.80;;;;;;5036807;28;20369;-91
2022/02/24 07:16:20;;;;;;;38.67;20.92;;;153.90;2252.80;;;;;;5043341;28;19915;-81
2022/02/24 07:18:46;;;;;;;37.58;17.52;;;154.00;2252.80;;;;;;5044387;28;20029;-79
2022/02/24 07:21:11;;;;;;;;;;;154.00;2252.80;;;;;;5046631;28;20395;-83
2022/02/24 07:23:37;;;;;;;33.38;15.13;;;154.00;2252.80;;;;;;5042771;28;20417;-90
2022/02/24 07:26:03;;;;;;;;;;;154.20;2252.80;;;;;;5044188;28;20024;-79
2022/02/24 07:28:29;;;;;;;30.23;12.88;;;154.30;2252.80;;;;;;5046769;28;19905;-82
2022/02/24 07:30:54;;;;;;;;;;;154.40;2252.80;;;;;;5044198;28;20018;-83
2022/02/24 07:33:20;;;;;;;24.00;12.70;;;154.50;2252.80;;;;;;5045678;28;20363;-79
2022/02/24 07:35:45;;;;;;;;;;;179.20;2252.80;;;;;;5044003;28;20033;-80
2022/02/24 07:38:11;;;;;;;38.67;13.45;;;179.30;2252.80;;;;;;5046249;28;20046;-79
2022/02/24 07:40:37;;;;;;;;;;;179.40;2252.80;;;;;;5046498;28;20430;-80
2022/02/24 07:43:03;;;;;;;27.38;11.00;;;179.40;2252.80;;;;;;5044818;28;19919;-84
2022/02/24 07:45:28;;;;;;;;;;;179.60;2252.80;;;;;;5042734;28;20033;-79
2022/02/24 07:47:54;;;;;;;30.63;14.63;;;179.60;2252.80;;;;;;5046228;28;19912;-85
2022/02/24 07:50:19;;;;;;;;;;;179.60;2252.80;;;;;;5042797;28;20375;-83
2022/02/24 07:52:46;;;;;;;23.38;11.77;;;179.60;2252.80;;;;;;5048783;28;19905;-80
2022/02/24 07:55:13;;;;;;;27.20;14.10;;;179.60;2252.80;;;;;;5047948;28;20037;-82
2022/02/24 07:57:41;;;;;;;26.50;12.50;;;179.70;2252.80;;;;;;5034785;28;20057;-79
2022/02/24 08:00:09;;;;;;;28.92;13.73;;;179.60;2252.80;;;;;;5034739;28;20029;-85
2022/02/24 08:02:35;;;;;;;23.52;11.40;;;179.70;2252.80;;;;;;5035568;28;20099;-79
2022/02/24 08:05:00;;;;;;;;;;;179.60;2252.80;;;;;;5034944;28;20029;-79
2022/02/24 08:07:26;;;;;;;31.15;12.50;;;179.70;2252.80;;;;;;5034333;28;19943;-84
2022/02/24 08:09:52;;;;;;;;;;;179.70;2252.80;;;;;;5035071;28;20033;-84
2022/02/24 08:15:02;;;;;;;24.95;11.38;;;179.60;2252.80;;;;;;5035385;28;20117;-80
2022/02/24 08:17:28;;;;;;;24.38;12.43;;;179.70;2252.80;;;;;;5033285;28;20037;-79
2022/02/24 08:19:54;;;;;;;;;;;179.70;2252.80;;;;;;5034525;28;20533;-82
2022/02/24 08:22:19;;;;;;;25.23;11.63;;;179.60;2252.80;;;;;;5034987;28;19913;-80
2022/02/24 08:24:45;;;;;;;;;;;179.70;2252.80;;;;;;5034456;28;20513;-84
2022/02/24 08:27:11;;;;;;;31.60;10.30;;;179.70;2252.80;;;;;;5033913;28;19912;-80
2022/02/24 08:29:36;;;;;;;;;;;179.80;2252.80;;;;;;5037521;28;20021;-80
2022/02/24 08:32:02;;;;;;;21.73;9.27;;;179.90;2252.80;;;;;;5053950;28;19993;-81
2022/02/24 08:34:28;;;;;;;;;;;180.00;2252.80;;;;;;5054363;28;20502;-80
2022/02/24 08:36:54;;;;;;;19.35;7.45;;;180.00;2252.80;;;;;;5053893;28;19905;-83
2022/02/24 08:39:19;;;;;;;;;;;180.10;2252.80;;;;;;5054016;28;20029;-80
2022/02/24 08:41:45;;;;;;;21.83;9.82;;;180.00;2252.80;;;;;;5053388;28;19917;-82
2022/02/24 08:44:11;;;;;;;;;;;180.00;2252.80;;;;;;5053795;28;20061;-80
2022/02/24 08:46:37;;;;;;;17.92;7.57;;;180.10;2252.80;;;;;;5053832;28;19904;-82
2022/02/24 08:49:03;;;;;;;;;;;180.10;2252.80;;;;;;5054194;28;20031;-81
2022/02/24 08:51:29;;;;;;;14.40;6.15;;;204.80;2252.80;;;;;;5053408;28;19905;-81
2022/02/24 08:53:54;;;;;;;;;;;204.80;2252.80;;;;;;5053813;28;20079;-85
2022/02/24 08:56:20;;;;;;;26.27;8.05;;;204.90;2252.80;;;;;;5054321;28;19905;-79
2022/02/24 08:58:45;;;;;;;;;;;205.00;2252.80;;;;;;5069119;28;20041;-81
2022/02/24 09:01:11;;;;;;;23.33;7.88;;;205.00;2252.80;;;;;;5064818;28;19916;-77
2022/02/24 09:03:37;;;;;;;;;;;205.00;2252.80;;;;;;5054435;28;20064;-81
2022/02/24 09:06:03;;;;;;;24.02;6.50;;;205.10;2252.80;;;;;;5053331;28;20224;-86
2022/02/24 09:08:28;;;;;;;;;;;205.20;2252.80;;;;;;5054582;28;20394;-79
2022/02/24 09:10:54;;;;;;;15.98;6.88;;;205.20;2252.80;;;;;;5052818;28;19952;-78
2022/02/24 09:13:20;;;;;;;;;;;205.20;2252.80;;;;;;5054360;28;20111;-78
2022/02/24 09:15:45;;;;;;;19.67;7.80;;;205.30;2252.80;;;;;;5053027;28;19905;-80
2022/02/24 09:18:11;;;;;;;;;;;205.50;2252.80;;;;;;5053267;28;20021;-80
2022/02/24 09:20:38;;;;;;;14.10;7.22;;;205.60;2252.80;;;;;;5052864;28;20007;-80
2022/02/24 09:23:04;;;;;;;22.92;8.52;;;205.70;2252.80;;;;;;5050782;28;20029;-89
2022/02/24 09:25:30;;;;;;;;;;;230.50;2252.80;;;;;;5043950;28;20087;-78
2022/02/24 09:27:55;;;;;;;18.77;8.57;;;230.60;2252.80;;;;;;5044498;28;19991;-87
2022/02/24 09:30:21;;;;;;;;;;;230.60;2252.80;;;;;;5041916;28;20363;-81
2022/02/24 09:32:47;;;;;;;19.77;8.05;;;230.80;2252.80;;;;;;5044778;28;19909;-80
2022/02/24 09:35:14;;;;;;;;;;;230.90;2252.80;;;;;;5041424;28;20013;-86
2022/02/24 09:37:41;;;;;;;14.15;8.05;;;231.10;2252.80;;;;;;5032748;28;19909;-79
2022/02/24 09:40:08;;;;;;;14.68;7.15;;;231.20;2252.80;;;;;;5032429;28;20601;-79
2022/02/24 09:42:35;;;;;;;17.55;8.35;;;231.20;2252.80;;;;;;5038310;28;20415;-87
2022/02/24 09:45:02;;;;;;;15.88;6.65;;;231.30;2252.80;;;;;;5040486;28;20029;-79
2022/02/24 09:47:29;;;;;;;23.48;9.45;;;256.10;2252.80;;;;;;5043678;28;20041;-88
2022/02/24 09:49:59;;;;;;;18.55;8.98;;;256.10;2252.80;;;;;;5040432;28;20021;-77
2022/02/24 09:52:25;;;;;;;24.92;10.18;;;256.20;2252.80;;;;;;5046578;28;20021;-79
2022/02/24 09:54:51;;;;;;;24.73;8.07;;;256.50;2252.80;;;;;;5052185;28;20021;-78
2022/02/24 09:57:17;;;;;;;16.10;7.68;;;256.40;2252.80;;;;;;5052440;28;20035;-81
2022/02/24 09:59:42;;;;;;;;;;;256.50;2252.80;;;;;;5053989;28;20024;-79
2022/02/24 10:02:10;;;;;;;12.75;6.78;;;256.90;2227.20;;;;;;5052327;28;19920;-89
2022/02/24 10:04:36;;;;;;;13.38;6.65;;;256.90;2252.80;;;;;;5053266;28;20036;-86
2022/02/24 10:07:01;;;;;;;14.60;7.78;;;256.90;2252.80;;;;;;5039662;28;20022;-78
2022/02/24 10:09:31;;;;;;;;;;;281.60;2201.60;;;;;;5033867;28;20030;-92
2022/02/24 10:12:10;;;;;;;15.05;7.93;;;282.10;2124.80;;;;;;5031898;28;19913;-90
2022/02/24 10:14:38;;;;;;;17.05;8.25;;;282.00;2022.40;;;;;;5035744;28;20032;-89
2022/02/24 10:17:07;;;;;;;19.98;8.38;;;282.10;1996.80;;;;;;5036308;28;20044;-91
2022/02/24 10:19:47;;;;;;;16.50;7.95;;;282.40;1945.60;;;;;;5037530;28;20021;-79
2022/02/24 10:22:18;;;;;;;22.58;8.68;;;307.20;1920.00;;;;;;5036115;28;20030;-78
2022/02/24 10:24:53;;;;;;;10.95;5.72;;;307.40;1920.00;;;;;;5037165;28;20033;-90
2022/02/24 10:27:31;;;;;;;11.43;4.53;;;307.40;1868.80;;;;;;5036074;28;20029;-77
2022/02/24 10:30:13;;;;;;;12.57;5.35;;;307.20;1843.20;;;;;;5035509;28;20128;-84
2022/02/24 10:32:44;;;;;;;11.70;4.60;;;307.30;1894.40;;;;;;5035884;28;20038;-80
2022/02/24 10:35:34;;;;;;;9.27;4.90;;;307.30;1868.80;;;;;;5037287;28;20029;-78
2022/02/24 10:38:03;;;;;;;10.55;5.40;;;307.60;1868.80;;;;;;5035803;28;20018;-78
2022/02/24 10:40:33;;;;;;;17.92;6.85;;;307.40;1792.00;;;;;;5036026;28;20053;-78
2022/02/24 10:43:32;;;;;;;34.60;11.63;;;308.00;1843.20;;;;;;5035779;28;20140;-86
2022/02/24 10:46:08;;;;;;;23.10;13.15;;;307.80;1740.80;;;;;;5025319;28;20033;-81
2022/02/24 10:49:00;;;;;;;7.50;3.47;;;307.80;1740.80;;;;;;5035036;28;20100;-77
2022/02/24 10:51:34;;;;;;;15.13;4.93;;;307.70;1715.20;;;;;;4959870;28;20027;-89
2022/02/24 10:54:04;;;;;;;14.30;5.38;;;308.00;1740.80;;;;;;4965164;28;20054;-88
2022/02/24 10:56:31;;;;;;;10.25;4.45;;;333.00;1715.20;;;;;;4983816;28;20038;-88
2022/02/24 10:58:57;;;;;;;18.63;5.85;;;332.80;1740.80;;;;;;4975543;28;20023;-88
2022/02/24 11:01:29;;;;;;;18.92;6.50;;;332.90;1715.20;;;;;;4967621;28;20117;-77
2022/02/24 11:04:00;;;;;;;11.45;5.07;;;333.30;1689.60;;;;;;4986502;28;20051;-77
2022/02/24 11:06:28;;;;;;;13.80;5.47;;;332.90;1689.60;;;;;;4978310;28;20114;-77
2022/02/24 11:08:56;;;;;;;10.45;3.67;;;333.20;1715.20;;;;;;4975575;28;20039;-78
2022/02/24 11:11:29;;;;;;;18.38;5.07;;;332.80;1689.60;;;;;;4983963;28;20034;-81
2022/02/24 11:13:59;;;;;;;11.57;4.07;;;332.90;1689.60;;;;;;4983403;28;20230;-77
2022/02/24 11:16:26;;;;;;;8.05;3.88;;;333.50;1664.00;;;;;;4969250;28;20500;-81
2022/02/24 11:18:52;;;;;;;11.95;4.88;;;333.50;1664.00;;;;;;4966111;28;20039;-88
2022/02/24 11:21:19;;;;;;;12.65;4.63;;;333.70;1612.80;;;;;;4968612;28;20121;-89
2022/02/24 11:23:48;;;;;;;8.98;3.83;;;333.40;1664.00;;;;;;4986012;28;20057;-81
2022/02/24 11:26:22;;;;;;;9.73;4.03;;;333.50;1664.00;;;;;;4983276;28;20019;-85
2022/02/24 11:28:58;;;;;;;14.35;7.72;;;333.70;1715.20;;;;;;5022849;28;20071;-78
2022/02/24 11:31:35;;;;;;;12.10;4.45;;;333.70;1638.40;;;;;;5047390;28;20536;-78
2022/02/24 11:34:01;;;;;;;9.25;5.20;;;358.50;1587.20;;;;;;5054961;28;20079;-91
2022/02/24 11:36:41;;;;;;;13.63;5.45;;;358.50;1587.20;;;;;;5054605;28;20048;-79
2022/02/24 11:39:08;;;;;;;11.93;3.67;;;358.60;1561.60;;;;;;5048705;28;20067;-79
2022/02/24 11:41:49;;;;;;;19.38;10.45;;;359.00;1484.80;;;;;;5043559;28;20043;-93
2022/02/24 11:44:41;;;;;;;16.38;5.28;;;359.10;1510.40;;;;;;5043174;28;20041;-79
2022/02/24 11:47:09;;;;;;;32.85;6.82;;;358.90;1561.60;;;;;;5014730;28;20041;-80
2022/02/24 11:49:53;;;;;;;12.43;4.63;;;358.70;1587.20;;;;;;5014833;28;20022;-92
2022/02/24 11:52:30;;;;;;;13.20;4.78;;;358.60;1561.60;;;;;;5014672;28;20559;-79
2022/02/24 11:54:57;;;;;;;11.63;4.88;;;358.70;1561.60;;;;;;5014746;28;20026;-92
2022/02/24 11:57:32;;;;;;;8.13;4.28;;;358.40;1536.00;;;;;;5014377;28;20026;-92
2022/02/24 12:00:17;;;;;;;8.98;3.75;;;358.60;1536.00;;;;;;5014621;28;20107;-80
2022/02/24 12:02:46;;;;;;;15.43;4.95;;;358.80;1510.40;;;;;;5012585;28;20057;-86
2022/02/24 12:05:38;;;;;;;14.85;5.20;;;358.70;1510.40;;;;;;5014920;28;20029;-80
2022/02/24 12:08:04;;;;;;;9.70;4.05;;;358.60;1510.40;;;;;;5011916;28;20030;-79
2022/02/24 12:10:49;;;;;;;10.55;4.40;;;358.90;1484.80;;;;;;5014625;28;20081;-83
2022/02/24 12:13:26;;;;;;;8.13;3.40;;;359.10;1484.80;;;;;;5014753;28;20037;-88
2022/02/24 12:16:14;;;;;;;9.77;3.45;;;359.10;1433.60;;;;;;5016185;28;20026;-78
2022/02/24 12:18:41;;;;;;;10.20;4.18;;;384.30;1382.40;;;;;;5022148;28;20018;-77
2022/02/24 12:21:25;;;;;;;8.82;4.70;;;359.30;1408.00;;;;;;5025831;28;20018;-78
2022/02/24 12:23:53;;;;;;;7.43;3.95;;;384.10;1408.00;;;;;;5022502;28;20476;-84
2022/02/24 12:26:41;;;;;;;9.68;4.40;;;384.70;1305.60;;;;;;5015401;28;20030;-83
2022/02/24 12:29:25;;;;;;;10.07;4.03;;;409.70;1305.60;;;;;;4999979;28;20091;-94
2022/02/24 12:31:56;;;;;;;9.45;3.58;;;359.30;1356.80;;;;;;5016362;28;20037;-79